sensor_id;sensor_type;location;lat;lon;timestamp;P1;durP1;ratioP1;P2;durP2;ratioP2
51174;SDS011;37240;50.104;20.010;2023-08-06T00:03:20;35.60;;;18.27;;
51174;SDS011;37240;50.104;20.010;2023-08-06T00:08:20;40.40;;;16.65;;
51174;SDS011;37240;50.104;20.010;2023-08-06T00:13:21;26.38;;;16.42;;
51174;SDS011;37240;50.104;20.010;2023-08-06T00:18:21;28.00;;;15.57;;
51174;SDS011;37240;50.104;20.010;2023-08-06T00:23:22;29.30;;;16.95;;
51174;SDS011;37240;50.104;20.010;2023-08-06T00:28:22;37.38;;;17.40;;
51174;SDS011;37240;50.104;20.010;2023-08-06T00:33:23;30.08;;;16.45;;
51174;SDS011;37240;50.104;20.010;2023-08-06T00:38:24;31.83;;;16.33;;
51174;SDS011;37240;50.104;20.010;2023-08-06T00:43:25;34.53;;;16.05;;
51174;SDS011;37240;50.104;20.010;2023-08-06T00:48:25;34.90;;;15.90;;
51174;SDS011;37240;50.104;20.010;2023-08-06T00:53:26;39.50;;;17.17;;
51174;SDS011;37240;50.104;20.010;2023-08-06T00:58:27;31.60;;;16.92;;
51174;SDS011;37240;50.104;20.010;2023-08-06T01:03:28;32.95;;;14.77;;
51174;SDS011;37240;50.104;20.010;2023-08-06T01:13:50;22.27;;;13.05;;
51174;SDS011;37240;50.104;20.010;2023-08-06T01:18:59;24.85;;;12.70;;
51174;SDS011;37240;50.104;20.010;2023-08-06T01:24:00;21.35;;;11.20;;
51174;SDS011;37240;50.104;20.010;2023-08-06T01:29:15;14.20;;;10.55;;
51174;SDS011;37240;50.104;20.010;2023-08-06T01:34:28;21.77;;;11.93;;
51174;SDS011;37240;50.104;20.010;2023-08-06T01:39:33;23.52;;;11.55;;
51174;SDS011;37240;50.104;20.010;2023-08-06T01:44:33;16.08;;;11.40;;
51174;SDS011;37240;50.104;20.010;2023-08-06T01:49:34;19.90;;;11.60;;
51174;SDS011;37240;50.104;20.010;2023-08-06T01:54:34;26.88;;;12.95;;
51174;SDS011;37240;50.104;20.010;2023-08-06T01:59:35;23.88;;;12.88;;
51174;SDS011;37240;50.104;20.010;2023-08-06T02:04:36;31.55;;;13.38;;
51174;SDS011;37240;50.104;20.010;2023-08-06T02:09:36;20.73;;;13.38;;
51174;SDS011;37240;50.104;20.010;2023-08-06T02:14:37;25.30;;;12.85;;
51174;SDS011;37240;50.104;20.010;2023-08-06T02:19:37;29.13;;;15.38;;
51174;SDS011;37240;50.104;20.010;2023-08-06T02:24:38;30.25;;;17.35;;
51174;SDS011;37240;50.104;20.010;2023-08-06T02:29:39;37.95;;;19.30;;
51174;SDS011;37240;50.104;20.010;2023-08-06T02:34:40;38.38;;;20.98;;
51174;SDS011;37240;50.104;20.010;2023-08-06T02:39:41;42.20;;;21.85;;
51174;SDS011;37240;50.104;20.010;2023-08-06T02:44:41;48.05;;;24.80;;
51174;SDS011;37240;50.104;20.010;2023-08-06T02:49:42;53.00;;;27.42;;
51174;SDS011;37240;50.104;20.010;2023-08-06T02:54:43;48.13;;;25.50;;
51174;SDS011;37240;50.104;20.010;2023-08-06T02:59:44;60.15;;;27.95;;
51174;SDS011;37240;50.104;20.010;2023-08-06T03:04:44;69.70;;;31.15;;
51174;SDS011;37240;50.104;20.010;2023-08-06T03:09:45;61.92;;;28.08;;
51174;SDS011;37240;50.104;20.010;2023-08-06T03:14:46;47.50;;;25.58;;
51174;SDS011;37240;50.104;20.010;2023-08-06T03:19:46;59.10;;;25.05;;
51174;SDS011;37240;50.104;20.010;2023-08-06T03:24:49;44.25;;;25.00;;
51174;SDS011;37240;50.104;20.010;2023-08-06T03:29:50;46.65;;;23.58;;
51174;SDS011;37240;50.104;20.010;2023-08-06T03:34:51;50.80;;;22.83;;
51174;SDS011;37240;50.104;20.010;2023-08-06T03:39:52;45.95;;;21.73;;
51174;SDS011;37240;50.104;20.010;2023-08-06T03:44:52;47.40;;;21.40;;
51174;SDS011;37240;50.104;20.010;2023-08-06T03:49:53;45.65;;;22.48;;
51174;SDS011;37240;50.104;20.010;2023-08-06T03:54:53;42.35;;;20.35;;
51174;SDS011;37240;50.104;20.010;2023-08-06T03:59:54;40.78;;;21.42;;
51174;SDS011;37240;50.104;20.010;2023-08-06T04:04:54;34.72;;;20.05;;
51174;SDS011;37240;50.104;20.010;2023-08-06T04:09:56;50.00;;;21.65;;
51174;SDS011;37240;50.104;20.010;2023-08-06T04:14:58;39.83;;;19.83;;
51174;SDS011;37240;50.104;20.010;2023-08-06T04:19:59;41.92;;;19.85;;
51174;SDS011;37240;50.104;20.010;2023-08-06T04:25:01;39.13;;;20.35;;
51174;SDS011;37240;50.104;20.010;2023-08-06T04:30:01;42.90;;;18.58;;
51174;SDS011;37240;50.104;20.010;2023-08-06T04:35:02;31.75;;;16.80;;
51174;SDS011;37240;50.104;20.010;2023-08-06T04:40:03;27.42;;;15.48;;
51174;SDS011;37240;50.104;20.010;2023-08-06T04:45:04;28.48;;;14.75;;
51174;SDS011;37240;50.104;20.010;2023-08-06T04:50:05;23.27;;;13.85;;
51174;SDS011;37240;50.104;20.010;2023-08-06T04:55:06;24.63;;;13.82;;
51174;SDS011;37240;50.104;20.010;2023-08-06T05:00:06;24.70;;;14.27;;
51174;SDS011;37240;50.104;20.010;2023-08-06T05:05:07;25.30;;;12.90;;
51174;SDS011;37240;50.104;20.010;2023-08-06T05:10:08;23.33;;;12.80;;
51174;SDS011;37240;50.104;20.010;2023-08-06T05:15:09;17.65;;;11.40;;
51174;SDS011;37240;50.104;20.010;2023-08-06T05:20:10;24.63;;;13.30;;
51174;SDS011;37240;50.104;20.010;2023-08-06T05:25:13;19.40;;;11.75;;
51174;SDS011;37240;50.104;20.010;2023-08-06T05:30:13;21.27;;;11.80;;
51174;SDS011;37240;50.104;20.010;2023-08-06T05:35:14;20.88;;;11.25;;
51174;SDS011;37240;50.104;20.010;2023-08-06T05:40:14;22.90;;;11.63;;
51174;SDS011;37240;50.104;20.010;2023-08-06T05:45:15;17.20;;;10.63;;
51174;SDS011;37240;50.104;20.010;2023-08-06T05:50:16;31.67;;;11.25;;
51174;SDS011;37240;50.104;20.010;2023-08-06T05:55:16;18.92;;;10.23;;
51174;SDS011;37240;50.104;20.010;2023-08-06T06:00:17;16.88;;;9.93;;
51174;SDS011;37240;50.104;20.010;2023-08-06T06:05:18;16.75;;;9.65;;
51174;SDS011;37240;50.104;20.010;2023-08-06T06:10:18;11.30;;;9.45;;
51174;SDS011;37240;50.104;20.010;2023-08-06T06:15:19;9.30;;;7.28;;
51174;SDS011;37240;50.104;20.010;2023-08-06T06:20:19;9.55;;;7.43;;
51174;SDS011;37240;50.104;20.010;2023-08-06T06:25:20;13.38;;;8.52;;
51174;SDS011;37240;50.104;20.010;2023-08-06T06:30:20;15.48;;;7.60;;
51174;SDS011;37240;50.104;20.010;2023-08-06T06:35:21;11.25;;;7.53;;
51174;SDS011;37240;50.104;20.010;2023-08-06T06:40:21;16.35;;;9.50;;
51174;SDS011;37240;50.104;20.010;2023-08-06T06:45:22;14.05;;;9.15;;
51174;SDS011;37240;50.104;20.010;2023-08-06T06:50:23;31.13;;;13.93;;
51174;SDS011;37240;50.104;20.010;2023-08-06T06:55:23;30.85;;;15.18;;
51174;SDS011;37240;50.104;20.010;2023-08-06T07:00:24;34.38;;;16.40;;
51174;SDS011;37240;50.104;20.010;2023-08-06T07:05:24;28.85;;;16.15;;
51174;SDS011;37240;50.104;20.010;2023-08-06T07:10:25;25.50;;;16.00;;
51174;SDS011;37240;50.104;20.010;2023-08-06T07:15:26;30.48;;;14.90;;
51174;SDS011;37240;50.104;20.010;2023-08-06T07:20:26;28.48;;;15.02;;
51174;SDS011;37240;50.104;20.010;2023-08-06T07:25:27;22.90;;;13.13;;
51174;SDS011;37240;50.104;20.010;2023-08-06T07:30:28;22.55;;;13.15;;
51174;SDS011;37240;50.104;20.010;2023-08-06T07:35:28;16.85;;;11.40;;
51174;SDS011;37240;50.104;20.010;2023-08-06T07:40:29;15.60;;;10.15;;
51174;SDS011;37240;50.104;20.010;2023-08-06T07:45:36;21.70;;;11.35;;
51174;SDS011;37240;50.104;20.010;2023-08-06T07:50:36;26.33;;;13.18;;
51174;SDS011;37240;50.104;20.010;2023-08-06T07:55:37;31.27;;;16.48;;
51174;SDS011;37240;50.104;20.010;2023-08-06T08:00:38;14.20;;;7.97;;
51174;SDS011;37240;50.104;20.010;2023-08-06T08:05:38;5.55;;;4.47;;
51174;SDS011;37240;50.104;20.010;2023-08-06T08:10:39;3.22;;;2.92;;
51174;SDS011;37240;50.104;20.010;2023-08-06T08:15:40;2.72;;;2.55;;
51174;SDS011;37240;50.104;20.010;2023-08-06T08:20:40;1.98;;;1.88;;
51174;SDS011;37240;50.104;20.010;2023-08-06T08:25:41;0.85;;;0.85;;
51174;SDS011;37240;50.104;20.010;2023-08-06T08:30:41;0.95;;;0.80;;
51174;SDS011;37240;50.104;20.010;2023-08-06T08:35:42;1.13;;;0.63;;
51174;SDS011;37240;50.104;20.010;2023-08-06T08:40:46;0.80;;;0.65;;
51174;SDS011;37240;50.104;20.010;2023-08-06T08:45:51;5.20;;;0.60;;
51174;SDS011;37240;50.104;20.010;2023-08-06T08:50:53;27.20;;;17.65;;
51174;SDS011;37240;50.104;20.010;2023-08-06T08:55:53;10.15;;;7.47;;
51174;SDS011;37240;50.104;20.010;2023-08-06T09:00:55;3.65;;;2.55;;
51174;SDS011;37240;50.104;20.010;2023-08-06T09:05:55;1.45;;;1.35;;
51174;SDS011;37240;50.104;20.010;2023-08-06T09:10:57;0.57;;;0.50;;
51174;SDS011;37240;50.104;20.010;2023-08-06T09:15:59;0.50;;;0.50;;
51174;SDS011;37240;50.104;20.010;2023-08-06T09:21:00;2.10;;;1.38;;
51174;SDS011;37240;50.104;20.010;2023-08-06T09:26:00;1.00;;;0.73;;
51174;SDS011;37240;50.104;20.010;2023-08-06T09:31:01;1.13;;;0.65;;
51174;SDS011;37240;50.104;20.010;2023-08-06T09:36:11;1.40;;;0.88;;
51174;SDS011;37240;50.104;20.010;2023-08-06T09:41:12;0.90;;;0.70;;
51174;SDS011;37240;50.104;20.010;2023-08-06T09:46:26;3.33;;;1.07;;
51174;SDS011;37240;50.104;20.010;2023-08-06T09:51:31;1.88;;;0.60;;
51174;SDS011;37240;50.104;20.010;2023-08-06T09:56:33;0.88;;;0.65;;
51174;SDS011;37240;50.104;20.010;2023-08-06T10:01:34;0.65;;;0.30;;
51174;SDS011;37240;50.104;20.010;2023-08-06T10:06:35;6.72;;;4.55;;
51174;SDS011;37240;50.104;20.010;2023-08-06T10:11:36;24.75;;;14.95;;
51174;SDS011;37240;50.104;20.010;2023-08-06T10:16:42;6.40;;;4.72;;
51174;SDS011;37240;50.104;20.010;2023-08-06T10:22:07;2.13;;;1.92;;
51174;SDS011;37240;50.104;20.010;2023-08-06T10:27:09;0.80;;;0.80;;
51174;SDS011;37240;50.104;20.010;2023-08-06T10:32:09;5.55;;;4.60;;
51174;SDS011;37240;50.104;20.010;2023-08-06T10:37:10;2.47;;;2.05;;
51174;SDS011;37240;50.104;20.010;2023-08-06T10:42:19;1.33;;;1.00;;
51174;SDS011;37240;50.104;20.010;2023-08-06T10:47:26;1.35;;;0.82;;
51174;SDS011;37240;50.104;20.010;2023-08-06T10:52:27;0.30;;;0.30;;
51174;SDS011;37240;50.104;20.010;2023-08-06T10:57:27;0.30;;;0.30;;
51174;SDS011;37240;50.104;20.010;2023-08-06T11:02:28;2.90;;;0.80;;
51174;SDS011;37240;50.104;20.010;2023-08-06T11:07:32;0.47;;;0.47;;
51174;SDS011;37240;50.104;20.010;2023-08-06T11:12:34;0.70;;;0.43;;
51174;SDS011;37240;50.104;20.010;2023-08-06T11:17:35;1.25;;;0.40;;
51174;SDS011;37240;50.104;20.010;2023-08-06T11:22:36;0.40;;;0.40;;
51174;SDS011;37240;50.104;20.010;2023-08-06T11:27:37;0.40;;;0.30;;
51174;SDS011;37240;50.104;20.010;2023-08-06T11:32:47;0.60;;;0.60;;
51174;SDS011;37240;50.104;20.010;2023-08-06T11:37:48;3.35;;;0.32;;
51174;SDS011;37240;50.104;20.010;2023-08-06T11:42:49;0.40;;;0.30;;
51174;SDS011;37240;50.104;20.010;2023-08-06T11:47:51;0.68;;;0.43;;
51174;SDS011;37240;50.104;20.010;2023-08-06T11:52:53;0.63;;;0.40;;
51174;SDS011;37240;50.104;20.010;2023-08-06T11:57:56;0.32;;;0.30;;
51174;SDS011;37240;50.104;20.010;2023-08-06T12:02:57;1.38;;;0.40;;
51174;SDS011;37240;50.104;20.010;2023-08-06T12:07:59;0.20;;;0.20;;
51174;SDS011;37240;50.104;20.010;2023-08-06T12:13:00;1.23;;;0.50;;
51174;SDS011;37240;50.104;20.010;2023-08-06T12:18:01;0.57;;;0.20;;
51174;SDS011;37240;50.104;20.010;2023-08-06T12:23:02;0.47;;;0.40;;
51174;SDS011;37240;50.104;20.010;2023-08-06T12:28:02;0.32;;;0.32;;
51174;SDS011;37240;50.104;20.010;2023-08-06T12:33:03;0.57;;;0.47;;
51174;SDS011;37240;50.104;20.010;2023-08-06T12:38:03;0.38;;;0.20;;
51174;SDS011;37240;50.104;20.010;2023-08-06T12:43:04;0.32;;;0.28;;
51174;SDS011;37240;50.104;20.010;2023-08-06T12:48:05;1.73;;;0.25;;
51174;SDS011;37240;50.104;20.010;2023-08-06T12:53:05;0.68;;;0.40;;
51174;SDS011;37240;50.104;20.010;2023-08-06T12:58:06;0.22;;;0.20;;
51174;SDS011;37240;50.104;20.010;2023-08-06T13:03:06;1.00;;;0.30;;
51174;SDS011;37240;50.104;20.010;2023-08-06T13:08:07;2.85;;;0.45;;
51174;SDS011;37240;50.104;20.010;2023-08-06T13:13:07;0.50;;;0.50;;
51174;SDS011;37240;50.104;20.010;2023-08-06T13:18:09;4.28;;;0.30;;
51174;SDS011;37240;50.104;20.010;2023-08-06T13:23:09;0.28;;;0.28;;
51174;SDS011;37240;50.104;20.010;2023-08-06T13:28:10;26.98;;;16.35;;
51174;SDS011;37240;50.104;20.010;2023-08-06T13:33:11;4.28;;;3.50;;
51174;SDS011;37240;50.104;20.010;2023-08-06T13:38:11;1.27;;;0.82;;
51174;SDS011;37240;50.104;20.010;2023-08-06T13:43:12;0.90;;;0.22;;
51174;SDS011;37240;50.104;20.010;2023-08-06T13:48:12;0.38;;;0.30;;
51174;SDS011;37240;50.104;20.010;2023-08-06T13:53:13;2.75;;;0.28;;
51174;SDS011;37240;50.104;20.010;2023-08-06T13:58:14;0.28;;;0.28;;
51174;SDS011;37240;50.104;20.010;2023-08-06T14:03:14;0.70;;;0.60;;
51174;SDS011;37240;50.104;20.010;2023-08-06T14:08:15;0.70;;;0.40;;
51174;SDS011;37240;50.104;20.010;2023-08-06T14:13:16;0.30;;;0.30;;
51174;SDS011;37240;50.104;20.010;2023-08-06T14:18:16;0.28;;;0.25;;
51174;SDS011;37240;50.104;20.010;2023-08-06T14:23:17;2.47;;;0.30;;
51174;SDS011;37240;50.104;20.010;2023-08-06T14:28:18;0.25;;;0.25;;
51174;SDS011;37240;50.104;20.010;2023-08-06T14:33:18;3.65;;;1.10;;
51174;SDS011;37240;50.104;20.010;2023-08-06T14:38:19;0.85;;;0.70;;
51174;SDS011;37240;50.104;20.010;2023-08-06T14:43:19;0.52;;;0.50;;
51174;SDS011;37240;50.104;20.010;2023-08-06T14:48:20;1.55;;;0.70;;
51174;SDS011;37240;50.104;20.010;2023-08-06T14:53:21;2.67;;;2.47;;
51174;SDS011;37240;50.104;20.010;2023-08-06T14:58:21;16.08;;;9.50;;
51174;SDS011;37240;50.104;20.010;2023-08-06T15:03:22;2.67;;;2.22;;
51174;SDS011;37240;50.104;20.010;2023-08-06T15:08:22;2.10;;;0.90;;
51174;SDS011;37240;50.104;20.010;2023-08-06T15:13:23;0.47;;;0.47;;
51174;SDS011;37240;50.104;20.010;2023-08-06T15:18:23;0.30;;;0.30;;
51174;SDS011;37240;50.104;20.010;2023-08-06T15:23:24;0.20;;;0.20;;
51174;SDS011;37240;50.104;20.010;2023-08-06T15:28:25;1.05;;;0.60;;
51174;SDS011;37240;50.104;20.010;2023-08-06T15:33:25;0.43;;;0.40;;
51174;SDS011;37240;50.104;20.010;2023-08-06T15:38:26;0.40;;;0.40;;
51174;SDS011;37240;50.104;20.010;2023-08-06T15:43:27;18.67;;;10.65;;
51174;SDS011;37240;50.104;20.010;2023-08-06T15:48:27;7.47;;;3.72;;
51174;SDS011;37240;50.104;20.010;2023-08-06T15:53:28;1.55;;;1.45;;
51174;SDS011;37240;50.104;20.010;2023-08-06T15:58:28;0.80;;;0.80;;
51174;SDS011;37240;50.104;20.010;2023-08-06T16:03:29;0.70;;;0.70;;
51174;SDS011;37240;50.104;20.010;2023-08-06T16:08:29;4.28;;;0.70;;
51174;SDS011;37240;50.104;20.010;2023-08-06T16:13:30;0.30;;;0.30;;
51174;SDS011;37240;50.104;20.010;2023-08-06T16:18:31;1.70;;;0.80;;
51174;SDS011;37240;50.104;20.010;2023-08-06T16:23:31;14.32;;;9.93;;
51174;SDS011;37240;50.104;20.010;2023-08-06T16:28:32;8.82;;;4.72;;
51174;SDS011;37240;50.104;20.010;2023-08-06T16:33:32;4.65;;;1.80;;
51174;SDS011;37240;50.104;20.010;2023-08-06T16:38:33;0.65;;;0.65;;
51174;SDS011;37240;50.104;20.010;2023-08-06T16:43:33;0.60;;;0.60;;
51174;SDS011;37240;50.104;20.010;2023-08-06T16:48:34;0.30;;;0.30;;
51174;SDS011;37240;50.104;20.010;2023-08-06T16:53:34;0.65;;;0.60;;
51174;SDS011;37240;50.104;20.010;2023-08-06T16:58:35;0.50;;;0.40;;
51174;SDS011;37240;50.104;20.010;2023-08-06T17:03:36;0.30;;;0.30;;
51174;SDS011;37240;50.104;20.010;2023-08-06T17:08:36;0.70;;;0.70;;
51174;SDS011;37240;50.104;20.010;2023-08-06T17:13:37;1.30;;;0.55;;
51174;SDS011;37240;50.104;20.010;2023-08-06T17:18:37;0.50;;;0.40;;
51174;SDS011;37240;50.104;20.010;2023-08-06T17:23:38;0.55;;;0.55;;
51174;SDS011;37240;50.104;20.010;2023-08-06T17:28:38;0.57;;;0.43;;
51174;SDS011;37240;50.104;20.010;2023-08-06T17:33:39;1.75;;;1.13;;
51174;SDS011;37240;50.104;20.010;2023-08-06T17:38:39;1.02;;;0.80;;
51174;SDS011;37240;50.104;20.010;2023-08-06T17:43:40;1.08;;;0.55;;
51174;SDS011;37240;50.104;20.010;2023-08-06T17:48:41;0.65;;;0.60;;
51174;SDS011;37240;50.104;20.010;2023-08-06T17:53:41;0.43;;;0.43;;
51174;SDS011;37240;50.104;20.010;2023-08-06T17:58:42;1.08;;;0.60;;
51174;SDS011;37240;50.104;20.010;2023-08-06T18:03:43;1.83;;;0.43;;
51174;SDS011;37240;50.104;20.010;2023-08-06T18:08:43;1.95;;;0.60;;
51174;SDS011;37240;50.104;20.010;2023-08-06T18:13:45;7.75;;;5.13;;
51174;SDS011;37240;50.104;20.010;2023-08-06T18:18:45;11.02;;;1.30;;
51174;SDS011;37240;50.104;20.010;2023-08-06T18:23:46;2.72;;;1.13;;
51174;SDS011;37240;50.104;20.010;2023-08-06T18:28:47;0.80;;;0.80;;
51174;SDS011;37240;50.104;20.010;2023-08-06T18:33:48;1.35;;;1.20;;
51174;SDS011;37240;50.104;20.010;2023-08-06T18:38:48;1.13;;;0.70;;
51174;SDS011;37240;50.104;20.010;2023-08-06T18:43:49;0.32;;;0.32;;
51174;SDS011;37240;50.104;20.010;2023-08-06T18:48:49;4.60;;;0.60;;
51174;SDS011;37240;50.104;20.010;2023-08-06T18:53:50;1.25;;;0.80;;
51174;SDS011;37240;50.104;20.010;2023-08-06T18:58:50;0.55;;;0.55;;
51174;SDS011;37240;50.104;20.010;2023-08-06T19:03:51;12.50;;;8.82;;
51174;SDS011;37240;50.104;20.010;2023-08-06T19:08:51;18.65;;;11.93;;
51174;SDS011;37240;50.104;20.010;2023-08-06T19:13:52;4.55;;;4.15;;
51174;SDS011;37240;50.104;20.010;2023-08-06T19:18:52;1.80;;;1.70;;
51174;SDS011;37240;50.104;20.010;2023-08-06T19:23:53;0.73;;;0.73;;
51174;SDS011;37240;50.104;20.010;2023-08-06T19:28:54;8.25;;;5.35;;
51174;SDS011;37240;50.104;20.010;2023-08-06T19:33:55;10.15;;;6.68;;
51174;SDS011;37240;50.104;20.010;2023-08-06T19:38:55;4.00;;;2.65;;
51174;SDS011;37240;50.104;20.010;2023-08-06T19:43:56;1.90;;;1.40;;
51174;SDS011;37240;50.104;20.010;2023-08-06T19:48:56;2.60;;;1.17;;
51174;SDS011;37240;50.104;20.010;2023-08-06T19:53:57;6.60;;;0.95;;
51174;SDS011;37240;50.104;20.010;2023-08-06T19:58:58;1.10;;;1.00;;
51174;SDS011;37240;50.104;20.010;2023-08-06T20:03:58;28.02;;;18.40;;
51174;SDS011;37240;50.104;20.010;2023-08-06T20:08:59;27.27;;;15.38;;
51174;SDS011;37240;50.104;20.010;2023-08-06T20:13:59;3.08;;;2.88;;
51174;SDS011;37240;50.104;20.010;2023-08-06T20:19:00;2.35;;;1.83;;
51174;SDS011;37240;50.104;20.010;2023-08-06T20:24:00;2.88;;;1.23;;
51174;SDS011;37240;50.104;20.010;2023-08-06T20:29:01;40.60;;;24.05;;
51174;SDS011;37240;50.104;20.010;2023-08-06T20:34:02;12.38;;;8.05;;
51174;SDS011;37240;50.104;20.010;2023-08-06T20:39:02;5.38;;;3.17;;
51174;SDS011;37240;50.104;20.010;2023-08-06T20:44:03;23.40;;;13.18;;
51174;SDS011;37240;50.104;20.010;2023-08-06T20:49:03;4.72;;;4.22;;
51174;SDS011;37240;50.104;20.010;2023-08-06T20:54:04;9.85;;;2.67;;
51174;SDS011;37240;50.104;20.010;2023-08-06T20:59:04;5.18;;;1.50;;
51174;SDS011;37240;50.104;20.010;2023-08-06T21:04:05;1.33;;;1.20;;
51174;SDS011;37240;50.104;20.010;2023-08-06T21:09:05;2.53;;;1.25;;
51174;SDS011;37240;50.104;20.010;2023-08-06T21:14:06;0.77;;;0.77;;
51174;SDS011;37240;50.104;20.010;2023-08-06T21:19:07;2.45;;;1.17;;
51174;SDS011;37240;50.104;20.010;2023-08-06T21:24:07;5.20;;;4.78;;
51174;SDS011;37240;50.104;20.010;2023-08-06T21:29:08;2.63;;;2.30;;
51174;SDS011;37240;50.104;20.010;2023-08-06T21:34:09;3.17;;;1.60;;
51174;SDS011;37240;50.104;20.010;2023-08-06T21:39:09;58.20;;;32.60;;
51174;SDS011;37240;50.104;20.010;2023-08-06T21:44:10;14.52;;;9.27;;
51174;SDS011;37240;50.104;20.010;2023-08-06T21:49:10;9.23;;;3.85;;
51174;SDS011;37240;50.104;20.010;2023-08-06T21:54:11;1.90;;;1.80;;
51174;SDS011;37240;50.104;20.010;2023-08-06T21:59:11;1.75;;;1.65;;
51174;SDS011;37240;50.104;20.010;2023-08-06T22:04:12;5.38;;;1.30;;
51174;SDS011;37240;50.104;20.010;2023-08-06T22:09:13;30.15;;;17.42;;
51174;SDS011;37240;50.104;20.010;2023-08-06T22:14:14;29.02;;;18.30;;
51174;SDS011;37240;50.104;20.010;2023-08-06T22:19:14;5.72;;;5.25;;
51174;SDS011;37240;50.104;20.010;2023-08-06T22:24:15;2.40;;;2.28;;
51174;SDS011;37240;50.104;20.010;2023-08-06T22:29:15;1.80;;;1.65;;
51174;SDS011;37240;50.104;20.010;2023-08-06T22:34:16;17.42;;;11.02;;
51174;SDS011;37240;50.104;20.010;2023-08-06T22:39:16;5.55;;;4.47;;
51174;SDS011;37240;50.104;20.010;2023-08-06T22:44:17;2.45;;;2.25;;
51174;SDS011;37240;50.104;20.010;2023-08-06T22:49:18;3.78;;;1.77;;
51174;SDS011;37240;50.104;20.010;2023-08-06T22:54:18;1.95;;;1.77;;
51174;SDS011;37240;50.104;20.010;2023-08-06T22:59:19;2.92;;;2.58;;
51174;SDS011;37240;50.104;20.010;2023-08-06T23:04:19;6.72;;;4.18;;
51174;SDS011;37240;50.104;20.010;2023-08-06T23:09:20;2.47;;;2.28;;
51174;SDS011;37240;50.104;20.010;2023-08-06T23:14:21;2.55;;;2.35;;
51174;SDS011;37240;50.104;20.010;2023-08-06T23:19:21;13.98;;;2.70;;
51174;SDS011;37240;50.104;20.010;2023-08-06T23:24:22;3.55;;;3.22;;
51174;SDS011;37240;50.104;20.010;2023-08-06T23:29:22;6.65;;;5.22;;
51174;SDS011;37240;50.104;20.010;2023-08-06T23:34:23;4.13;;;3.72;;
51174;SDS011;37240;50.104;20.010;2023-08-06T23:39:23;2.42;;;2.33;;
51174;SDS011;37240;50.104;20.010;2023-08-06T23:44:24;5.05;;;2.00;;
51174;SDS011;37240;50.104;20.010;2023-08-06T23:49:25;10.18;;;3.38;;
51174;SDS011;37240;50.104;20.010;2023-08-06T23:54:25;7.55;;;2.20;;
51174;SDS011;37240;50.104;20.010;2023-08-06T23:59:26;2.75;;;2.20;;
